Time;durP1;ratioP1;P1;durP2;ratioP2;P2;SDS_P1;SDS_P2;PMS_P1;PMS_P2;Temp;Humidity;BMP_temperature;BMP_pressure;BME280_temperature;BME280_humidity;BME280_pressure;Samples;Min_cycle;Max_cycle;Signal;HPM_P1;HPM_P2
2021/10/05 00:02:39;;;;;;;13.32;11.95;;;11.70;99.90;;;12.05;100.00;94677.00;2286351;56;26153;-57
2021/10/05 00:05:25;;;;;;;13.50;12.10;;;11.70;99.90;;;12.06;100.00;94688.00;2519445;55;26565;-56
2021/10/05 00:08:11;;;;;;;15.35;12.45;;;11.60;99.90;;;12.06;100.00;94694.00;2286478;56;26540;-56
2021/10/05 00:10:58;;;;;;;14.43;12.27;;;11.60;99.90;;;12.03;100.00;94686.00;2519493;55;26673;-57
2021/10/05 00:13:44;;;;;;;13.83;12.43;;;11.60;99.90;;;12.08;100.00;94689.00;2286094;56;26164;-56
2021/10/05 00:16:31;;;;;;;13.30;11.90;;;11.60;99.90;;;12.01;100.00;94694.00;2519802;55;26095;-56
2021/10/05 00:19:17;;;;;;;17.33;13.17;;;11.60;99.90;;;12.06;100.00;94688.00;2286028;56;26641;-57
2021/10/05 00:22:05;;;;;;;14.60;13.20;;;11.70;99.90;;;12.12;100.00;94691.00;2284749;56;26178;-57
2021/10/05 00:24:51;;;;;;;15.37;13.77;;;11.60;99.90;;;12.04;100.00;94690.00;2286285;56;26105;-57
2021/10/05 00:27:38;;;;;;;13.90;12.30;;;11.60;99.90;;;12.07;100.00;94691.00;2286232;56;26137;-56
2021/10/05 00:30:24;;;;;;;14.20;12.43;;;11.60;99.90;;;12.03;100.00;94694.00;2519591;55;26774;-57
2021/10/05 00:33:11;;;;;;;14.13;12.63;;;11.60;99.90;;;12.04;100.00;94683.00;2286274;56;26079;-57
2021/10/05 00:35:57;;;;;;;15.70;12.83;;;11.60;99.90;;;12.06;100.00;94673.00;2519788;55;26201;-57
2021/10/05 00:38:43;;;;;;;15.00;13.10;;;11.60;99.90;;;12.02;100.00;94654.00;2285862;56;26173;-58
2021/10/05 00:41:30;;;;;;;15.83;13.50;;;11.60;99.90;;;12.01;100.00;94646.00;2518330;55;26575;-57
2021/10/05 00:44:26;;;;;;;14.63;13.03;;;11.60;99.90;;;12.05;100.00;94653.00;2286216;56;26604;-57
2021/10/05 00:47:15;;;;;;;17.20;14.63;;;11.50;99.90;;;11.98;100.00;94662.00;2519394;55;26633;-57
2021/10/05 00:50:01;;;;;;;16.27;14.13;;;11.40;99.90;;;11.83;100.00;94678.00;2286174;56;26078;-57
2021/10/05 00:52:49;;;;;;;15.57;13.87;;;11.30;99.90;;;11.78;100.00;94681.00;2519856;55;26138;-57
2021/10/05 00:58:35;;;;;;;17.42;13.93;;;11.40;99.90;;;12.00;100.00;94642.00;2251334;54;33116;-58
2021/10/05 01:01:22;;;;;;;16.73;14.27;;;11.40;99.90;;;11.87;100.00;94642.00;2259276;55;26672;-58
2021/10/05 01:04:10;;;;;;;16.63;13.70;;;11.40;99.90;;;11.83;100.00;94646.00;2259847;55;26117;-58
2021/10/05 01:06:59;;;;;;;16.30;13.70;;;11.40;99.90;;;11.94;100.00;94650.00;2495933;55;26126;-59
2021/10/05 01:09:46;;;;;;;14.53;13.00;;;11.50;99.90;;;11.95;100.00;94645.00;2488512;55;26567;-58
2021/10/05 01:12:33;;;;;;;16.43;14.17;;;11.50;99.90;;;11.94;100.00;94656.00;2259756;56;26187;-58
2021/10/05 01:15:24;;;;;;;15.77;13.20;;;11.50;99.90;;;11.94;100.00;94645.00;2259412;54;27003;-58
2021/10/05 01:18:11;;;;;;;17.63;14.50;;;11.50;99.90;;;12.00;100.00;94645.00;2266561;55;26118;-58
2021/10/05 01:20:59;;;;;;;20.67;14.00;;;11.50;99.90;;;11.93;100.00;94636.00;2495823;55;26541;-58
2021/10/05 01:23:46;;;;;;;16.27;13.90;;;11.50;99.90;;;11.96;100.00;94625.00;2266117;55;26095;-59
2021/10/05 01:26:33;;;;;;;15.50;13.80;;;11.50;99.90;;;11.92;100.00;94623.00;2495441;55;26094;-59
2021/10/05 01:29:23;;;;;;;15.67;13.97;;;11.50;99.90;;;11.92;100.00;94624.00;2266309;55;26217;-58
2021/10/05 01:32:09;;;;;;;15.17;13.33;;;11.50;99.90;;;11.96;100.00;94618.00;2495589;55;26097;-58
2021/10/05 01:34:56;;;;;;;16.23;12.83;;;11.50;99.90;;;11.91;100.00;94609.00;2266450;55;26125;-58
2021/10/05 01:37:42;;;;;;;16.57;13.47;;;11.50;99.90;;;11.99;100.00;94603.00;2495568;55;26193;-58
2021/10/05 01:40:29;;;;;;;16.73;13.53;;;11.60;99.90;;;11.94;100.00;94593.00;2266269;55;26138;-60
2021/10/05 01:43:15;;;;;;;14.07;12.57;;;11.50;99.90;;;12.00;100.00;94589.00;2495232;55;26130;-59
2021/10/05 01:46:03;;;;;;;15.40;13.07;;;11.50;99.90;;;11.95;100.00;94584.00;2495525;55;26188;-58
2021/10/05 01:48:50;;;;;;;15.10;13.03;;;11.50;99.90;;;12.04;100.00;94596.00;2495427;55;26115;-58
2021/10/05 01:51:36;;;;;;;15.43;13.02;;;11.50;99.90;;;11.97;100.00;94582.00;2240263;55;26150;-58
2021/10/05 01:54:23;;;;;;;17.77;13.67;;;11.50;99.90;;;11.98;100.00;94581.00;2240053;55;26165;-59
2021/10/05 01:57:09;;;;;;;16.97;12.97;;;11.50;99.90;;;11.92;100.00;94571.00;2477570;55;26135;-59
2021/10/05 01:59:56;;;;;;;18.13;13.47;;;11.40;99.90;;;11.83;100.00;94567.00;2260945;56;26586;-59
2021/10/05 02:02:42;;;;;;;16.83;13.07;;;11.40;99.90;;;11.78;100.00;94573.00;2492241;55;26100;-59
2021/10/05 02:05:28;;;;;;;15.33;13.33;;;11.40;99.90;;;11.76;100.00;94562.00;2254590;55;26688;-58
2021/10/05 02:08:16;;;;;;;16.13;12.57;;;11.40;99.90;;;11.74;100.00;94554.00;2494906;54;26185;-57
2021/10/05 02:11:02;;;;;;;18.70;13.77;;;11.40;99.90;;;11.77;100.00;94543.00;2265907;54;26070;-57
2021/10/05 02:13:48;;;;;;;14.67;12.50;;;11.40;99.90;;;11.75;100.00;94542.00;2507634;54;26169;-57
2021/10/05 02:16:35;;;;;;;17.47;13.70;;;11.40;99.90;;;11.74;100.00;94538.00;2270292;56;26584;-57
2021/10/05 02:19:22;;;;;;;17.40;12.83;;;11.30;99.90;;;11.68;100.00;94533.00;2264510;56;26114;-57
2021/10/05 02:22:09;;;;;;;15.03;12.60;;;11.30;99.90;;;11.77;100.00;94518.00;2493100;55;26249;-57
2021/10/05 02:24:56;;;;;;;18.20;12.80;;;11.40;99.90;;;11.76;100.00;94504.00;2264725;56;26151;-56
2021/10/05 02:27:42;;;;;;;14.70;12.40;;;11.40;99.90;;;11.80;100.00;94503.00;2493534;55;26573;-56
2021/10/05 02:30:29;;;;;;;18.37;13.13;;;11.40;99.90;;;11.87;100.00;94506.00;2264393;56;26105;-56
2021/10/05 02:33:15;;;;;;;17.70;13.37;;;11.40;99.90;;;11.86;100.00;94501.00;2493338;55;26142;-56
2021/10/05 02:38:59;;;;;;;16.80;13.73;;;11.40;99.90;;;11.89;100.00;94484.00;2252923;54;33696;-57
2021/10/05 02:41:46;;;;;;;15.57;12.57;;;11.40;99.90;;;11.76;100.00;94496.00;2233997;56;26115;-56
2021/10/05 02:44:33;;;;;;;14.77;11.90;;;11.40;99.90;;;11.73;100.00;94499.00;2240646;55;26221;-58
2021/10/05 02:47:20;;;;;;;14.43;10.97;;;11.40;99.90;;;11.79;100.00;94499.00;2236805;56;26198;-61
2021/10/05 02:50:08;;;;;;;13.88;11.12;;;11.40;99.90;;;11.79;100.00;94488.00;2458307;55;26175;-57
2021/10/05 02:52:54;;;;;;;13.23;11.53;;;11.40;99.90;;;11.86;100.00;94482.00;2232615;56;26621;-58
2021/10/05 02:55:41;;;;;;;14.90;11.50;;;11.40;99.90;;;11.77;100.00;94479.00;2233943;55;26150;-58
2021/10/05 02:58:28;;;;;;;13.40;11.60;;;11.40;99.90;;;11.77;100.00;94479.00;2247473;56;26618;-58
2021/10/05 03:01:14;;;;;;;14.13;11.00;;;11.30;99.90;;;11.74;100.00;94477.00;2221155;56;26605;-58
2021/10/05 03:04:01;;;;;;;17.20;12.83;;;11.30;99.90;;;11.73;100.00;94475.00;2197007;56;26165;-58
2021/10/05 03:06:47;;;;;;;14.43;11.03;;;11.30;99.90;;;11.72;100.00;94482.00;2186130;56;26167;-57
2021/10/05 03:09:34;;;;;;;14.77;11.87;;;11.30;99.90;;;11.75;100.00;94470.00;2187808;56;26237;-57
2021/10/05 03:12:21;;;;;;;15.87;11.57;;;11.30;99.90;;;11.78;100.00;94473.00;2203597;57;26606;-59
2021/10/05 03:15:09;;;;;;;15.30;11.90;;;11.30;99.90;;;11.74;100.00;94472.00;2432180;56;26641;-58
2021/10/05 03:17:55;;;;;;;14.90;11.27;;;11.30;99.90;;;11.68;100.00;94454.00;2217473;57;26599;-58
2021/10/05 03:23:38;;;;;;;14.53;10.70;;;11.20;99.90;;;11.74;100.00;94430.00;2251486;56;33216;-58
2021/10/05 03:26:25;;;;;;;14.13;10.27;;;11.30;99.90;;;11.72;100.00;94434.00;2239487;56;27315;-58
2021/10/05 03:29:13;;;;;;;14.37;10.83;;;11.30;99.90;;;11.69;100.00;94454.00;2236071;56;26139;-58
2021/10/05 03:32:00;;;;;;;12.93;10.57;;;11.20;99.90;;;11.61;100.00;94443.00;2228812;55;26596;-59
2021/10/05 03:34:46;;;;;;;14.83;11.40;;;11.20;99.90;;;11.55;100.00;94433.00;2256778;56;26130;-58
2021/10/05 03:37:32;;;;;;;13.40;10.70;;;11.20;99.90;;;11.52;100.00;94460.00;2268198;55;26130;-58
2021/10/05 03:40:19;;;;;;;15.77;11.20;;;11.10;99.90;;;11.52;100.00;94468.00;2522188;55;26140;-57
2021/10/05 03:43:05;;;;;;;15.90;11.80;;;11.10;99.90;;;11.43;100.00;94469.00;2288468;55;26144;-57
2021/10/05 03:45:52;;;;;;;15.00;11.07;;;11.00;99.90;;;11.40;100.00;94487.00;2522797;55;26118;-58
2021/10/05 03:48:38;;;;;;;13.90;11.60;;;11.00;99.90;;;11.47;100.00;94481.00;2287796;55;26193;-58
2021/10/05 03:51:25;;;;;;;14.73;11.33;;;11.00;99.90;;;11.45;100.00;94480.00;2287161;56;26216;-58
2021/10/05 03:54:11;;;;;;;15.97;11.03;;;11.00;99.90;;;11.44;100.00;94457.00;2287093;56;26093;-60
2021/10/05 03:56:59;;;;;;;15.50;11.30;;;11.10;99.90;;;11.50;100.00;94462.00;2286732;56;26703;-57
2021/10/05 03:59:46;;;;;;;16.30;11.67;;;11.10;99.90;;;11.53;100.00;94462.00;2287358;56;26170;-59
2021/10/05 04:02:33;;;;;;;15.00;10.97;;;11.10;99.90;;;11.57;100.00;94457.00;2273033;56;26159;-59
2021/10/05 04:05:19;;;;;;;17.50;11.33;;;11.20;99.90;;;11.57;100.00;94455.00;2489882;55;26208;-58
2021/10/05 04:08:06;;;;;;;16.67;11.10;;;11.20;99.90;;;11.63;100.00;94453.00;2261990;56;26112;-59
2021/10/05 04:10:53;;;;;;;14.63;10.70;;;11.20;99.90;;;11.61;100.00;94464.00;2488692;55;26240;-58
2021/10/05 04:16:36;;;;;;;14.80;10.30;;;11.10;99.90;;;11.63;100.00;94461.00;2247107;55;33155;-59
2021/10/05 04:19:23;;;;;;;17.33;11.07;;;11.10;99.90;;;11.54;100.00;94476.00;2222432;56;26224;-57
2021/10/05 04:22:09;;;;;;;17.23;11.83;;;11.10;99.90;;;11.55;100.00;94460.00;2238195;55;26131;-58
2021/10/05 04:27:53;;;;;;;16.67;11.23;;;11.10;99.90;;;11.71;100.00;94456.00;2246876;56;33277;-58
2021/10/05 04:30:41;;;;;;;16.43;11.47;;;11.20;99.90;;;11.60;100.00;94470.00;2245270;56;26674;-58
2021/10/05 04:33:27;;;;;;;15.50;10.97;;;11.10;99.90;;;11.53;100.00;94466.00;2489393;55;26141;-58
2021/10/05 04:36:14;;;;;;;15.90;11.17;;;11.10;99.90;;;11.50;100.00;94467.00;2490395;55;26621;-58
2021/10/05 04:39:00;;;;;;;15.47;11.07;;;11.10;99.90;;;11.56;100.00;94464.00;2493732;55;26121;-59
2021/10/05 04:41:47;;;;;;;14.80;11.07;;;11.10;99.90;;;11.57;100.00;94452.00;2287837;55;26091;-57
2021/10/05 04:44:34;;;;;;;17.47;11.23;;;11.10;99.90;;;11.58;100.00;94445.00;2521911;55;26151;-58
2021/10/05 04:47:20;;;;;;;15.67;10.87;;;11.10;99.90;;;11.61;100.00;94459.00;2287613;55;26103;-60
2021/10/05 04:50:10;;;;;;;13.20;10.67;;;11.10;99.90;;;11.55;100.00;94465.00;2287449;55;26196;-57
2021/10/05 04:52:56;;;;;;;16.33;11.27;;;11.10;99.90;;;11.52;100.00;94484.00;2288095;55;26143;-58
2021/10/05 04:55:44;;;;;;;19.63;12.57;;;11.00;99.90;;;11.40;100.00;94496.00;2286672;55;26116;-58
2021/10/05 04:58:30;;;;;;;20.33;12.30;;;10.90;99.90;;;11.30;100.00;94506.00;2521511;55;26076;-57
2021/10/05 05:01:17;;;;;;;18.47;11.97;;;10.90;99.90;;;11.29;100.00;94491.00;2287509;55;26526;-57
2021/10/05 05:04:03;;;;;;;19.13;11.13;;;10.90;99.90;;;11.36;100.00;94502.00;2488558;55;26656;-59
2021/10/05 05:06:50;;;;;;;16.57;11.33;;;10.90;99.90;;;11.34;100.00;94515.00;2260633;57;26715;-57
2021/10/05 05:09:36;;;;;;;19.00;12.20;;;10.90;99.90;;;11.36;100.00;94508.00;2488565;55;26162;-59
2021/10/05 05:15:21;;;;;;;18.87;11.97;;;10.90;99.90;;;11.37;100.00;94491.00;2509020;54;33747;-58
2021/10/05 05:18:08;;;;;;;22.87;13.40;;;10.90;99.90;;;11.35;100.00;94508.00;2283343;55;26169;-58
2021/10/05 05:20:54;;;;;;;21.17;13.20;;;10.90;99.90;;;11.31;100.00;94510.00;2520915;55;26157;-58
2021/10/05 05:23:40;;;;;;;22.50;13.83;;;10.90;99.90;;;11.24;100.00;94514.00;2287138;55;26124;-58
2021/10/05 05:26:27;;;;;;;22.10;13.10;;;10.80;99.90;;;11.18;100.00;94510.00;2520789;55;26216;-58
2021/10/05 05:29:13;;;;;;;21.60;12.50;;;10.80;99.90;;;11.21;100.00;94504.00;2251660;55;26123;-58
2021/10/05 05:31:59;;;;;;;18.10;12.33;;;10.80;99.90;;;11.23;100.00;94500.00;2240990;55;26165;-57
2021/10/05 05:34:46;;;;;;;18.20;13.30;;;10.90;99.90;;;11.37;100.00;94503.00;2470713;55;26077;-58
2021/10/05 05:37:32;;;;;;;19.17;13.00;;;10.90;99.90;;;11.26;100.00;94512.00;2262579;55;26580;-57
2021/10/05 05:40:19;;;;;;;22.20;14.30;;;10.90;99.90;;;11.28;100.00;94518.00;2490432;55;26213;-57
2021/10/05 05:43:05;;;;;;;22.73;14.63;;;10.80;99.90;;;11.10;100.00;94529.00;2262106;55;26526;-58
2021/10/05 05:45:51;;;;;;;26.33;16.30;;;10.80;99.90;;;11.07;100.00;94535.00;2490701;55;26658;-57
2021/10/05 05:48:37;;;;;;;25.73;15.03;;;10.70;99.90;;;11.03;100.00;94539.00;2252304;56;26090;-58
2021/10/05 05:51:24;;;;;;;25.40;15.07;;;10.70;99.90;;;11.17;100.00;94535.00;2236122;56;26163;-58
2021/10/05 05:54:10;;;;;;;26.33;14.33;;;10.70;99.90;;;11.06;100.00;94535.00;2457760;55;26971;-57
2021/10/05 05:56:56;;;;;;;26.27;15.50;;;10.70;99.90;;;11.12;100.00;94529.00;2236951;55;26117;-57
2021/10/05 05:59:43;;;;;;;25.10;14.60;;;10.80;99.90;;;11.21;100.00;94534.00;2460383;55;26090;-58
2021/10/05 06:05:26;;;;;;;25.07;14.97;;;10.80;99.90;;;11.27;100.00;94504.00;2414745;55;33985;-56
2021/10/05 06:08:13;;;;;;;23.93;14.87;;;10.80;99.90;;;11.18;100.00;94528.00;2184308;57;26669;-57
2021/10/05 06:11:00;;;;;;;25.33;14.10;;;10.80;99.90;;;11.23;100.00;94534.00;2211408;56;26175;-57
2021/10/05 06:13:47;;;;;;;25.33;13.87;;;10.80;99.90;;;11.24;100.00;94538.00;2222649;55;26678;-58
2021/10/05 06:16:33;;;;;;;22.10;13.33;;;10.80;99.90;;;11.17;100.00;94530.00;2431179;56;26166;-61
2021/10/05 06:19:20;;;;;;;23.03;13.70;;;10.80;99.90;;;11.29;100.00;94528.00;2207340;56;26206;-58
2021/10/05 06:22:07;;;;;;;20.07;12.73;;;10.90;99.90;;;11.30;100.00;94527.00;2211607;56;26168;-58
2021/10/05 06:24:53;;;;;;;19.07;11.97;;;10.90;99.90;;;11.28;100.00;94531.00;2429717;56;26170;-57
2021/10/05 06:27:39;;;;;;;16.80;11.30;;;10.90;99.90;;;11.27;100.00;94538.00;2211796;56;26648;-58
2021/10/05 06:30:28;;;;;;;17.10;11.03;;;10.90;99.90;;;11.24;100.00;94546.00;2429165;56;26170;-57
2021/10/05 06:33:14;;;;;;;16.73;11.13;;;10.90;99.90;;;11.24;100.00;94549.00;2211718;56;26604;-58
2021/10/05 06:36:00;;;;;;;17.00;9.93;;;10.90;99.90;;;11.29;100.00;94549.00;2429478;56;26185;-57
2021/10/05 06:38:46;;;;;;;14.90;10.00;;;10.90;99.90;;;11.29;100.00;94541.00;2211808;56;26118;-58
2021/10/05 06:41:32;;;;;;;16.47;9.83;;;10.90;99.90;;;11.30;100.00;94545.00;2429299;56;26174;-58
2021/10/05 06:44:22;;;;;;;15.53;9.43;;;10.90;99.90;;;11.29;100.00;94545.00;2208979;56;26554;-57
2021/10/05 06:47:09;;;;;;;13.00;9.10;;;11.00;99.90;;;11.41;100.00;94560.00;2434815;56;26200;-58
2021/10/05 06:49:55;;;;;;;14.00;9.00;;;11.00;99.90;;;11.40;100.00;94555.00;2216101;56;26151;-57
2021/10/05 06:52:42;;;;;;;11.83;8.80;;;11.00;99.90;;;11.49;100.00;94560.00;2216189;56;26250;-58
2021/10/05 06:55:28;;;;;;;13.73;9.53;;;11.00;99.90;;;11.48;100.00;94556.00;2434775;56;26121;-57
2021/10/05 06:58:15;;;;;;;14.27;9.57;;;11.00;99.90;;;11.35;100.00;94548.00;2215913;56;26115;-59
2021/10/05 07:01:01;;;;;;;15.57;8.60;;;11.00;99.90;;;11.43;100.00;94556.00;2434524;56;26120;-58
2021/10/05 07:03:48;;;;;;;14.13;9.67;;;11.00;99.90;;;11.40;100.00;94546.00;2191699;57;26628;-57
2021/10/05 07:06:36;;;;;;;14.77;9.73;;;11.00;99.90;;;11.47;100.00;94549.00;2406008;57;26121;-59
2021/10/05 07:12:19;;;;;;;12.13;9.13;;;11.30;99.90;;;11.89;100.00;94543.00;2250296;56;33648;-57
2021/10/05 07:15:09;;;;;;;12.73;8.83;;;11.30;99.90;;;11.79;100.00;94579.00;2244609;55;26178;-58
2021/10/05 07:17:57;;;;;;;11.70;8.47;;;11.40;99.90;;;11.77;100.00;94572.00;2478725;55;26591;-57
2021/10/05 07:20:43;;;;;;;15.80;9.97;;;11.30;99.90;;;11.68;100.00;94570.00;2237061;55;26135;-58
2021/10/05 07:23:30;;;;;;;14.13;8.87;;;11.30;99.90;;;11.67;100.00;94571.00;2235130;55;26239;-58
2021/10/05 07:26:17;;;;;;;13.37;9.80;;;11.30;99.90;;;11.77;100.00;94559.00;2234819;55;26559;-58
2021/10/05 07:29:04;;;;;;;13.53;10.43;;;11.40;99.90;;;11.89;100.00;94563.00;2463196;55;26160;-59
2021/10/05 07:31:50;;;;;;;20.30;13.23;;;11.50;99.90;;;12.01;100.00;94559.00;2251377;55;27042;-57
2021/10/05 07:34:36;;;;;;;13.57;9.80;;;11.60;99.90;;;12.04;100.00;94556.00;2481812;55;26614;-58
2021/10/05 07:37:23;;;;;;;12.43;8.30;;;11.60;99.90;;;12.14;100.00;94565.00;2246152;56;26255;-58
2021/10/05 07:40:15;;;;;;;11.10;8.03;;;11.70;99.90;;;12.21;100.00;94545.00;2264474;55;26152;-58
2021/10/05 07:43:02;;;;;;;10.83;8.20;;;11.90;99.90;;;12.47;100.00;94521.00;2266789;55;26097;-59
2021/10/05 07:45:50;;;;;;;10.60;8.40;;;12.10;99.90;;;12.64;100.00;94524.00;2271175;55;26213;-59
2021/10/05 07:48:37;;;;;;;10.40;7.60;;;12.20;99.90;;;12.78;100.00;94518.00;2265301;55;26108;-60
2021/10/05 07:51:23;;;;;;;8.52;7.05;;;12.10;99.90;;;12.52;100.00;94510.00;2266712;55;26596;-58
2021/10/05 07:54:10;;;;;;;7.80;7.00;;;12.10;99.90;;;12.59;100.00;94526.00;2502088;54;26153;-57
2021/10/05 07:56:56;;;;;;;8.87;6.97;;;12.20;99.90;;;12.72;100.00;94538.00;2266517;56;26087;-57
2021/10/05 07:59:42;;;;;;;9.73;7.20;;;12.10;99.90;;;12.58;100.00;94546.00;2502257;54;27132;-58
2021/10/05 08:02:29;;;;;;;8.40;6.97;;;12.10;99.90;;;12.57;100.00;94534.00;2266573;55;26176;-58
2021/10/05 08:05:16;;;;;;;9.63;7.70;;;12.00;99.90;;;12.39;100.00;94536.00;2501906;54;26189;-58
2021/10/05 08:08:05;;;;;;;9.83;7.37;;;12.00;99.90;;;12.38;100.00;94526.00;2250608;56;26183;-59
2021/10/05 08:10:51;;;;;;;9.20;7.47;;;11.90;99.90;;;12.34;100.00;94526.00;2241018;56;26154;-57
2021/10/05 08:13:38;;;;;;;10.53;7.43;;;11.90;99.90;;;12.24;100.00;94529.00;2471050;55;26685;-58
2021/10/05 08:16:30;;;;;;;10.07;7.40;;;11.80;99.90;;;12.18;100.00;94529.00;2262149;56;26618;-59
2021/10/05 08:19:18;;;;;;;14.67;8.13;;;11.80;99.90;;;12.24;100.00;94528.00;2287081;56;26724;-57
2021/10/05 08:22:05;;;;;;;8.27;7.03;;;11.90;99.90;;;12.38;100.00;94530.00;2288145;56;26164;-58
2021/10/05 08:24:51;;;;;;;9.67;7.33;;;11.90;99.90;;;12.37;100.00;94533.00;2521290;55;26104;-57
2021/10/05 08:27:38;;;;;;;9.10;7.47;;;12.00;99.90;;;12.45;100.00;94525.00;2287914;56;26137;-58
2021/10/05 08:30:25;;;;;;;10.83;7.90;;;12.00;99.90;;;12.35;100.00;94533.00;2521307;55;26683;-58
2021/10/05 08:33:11;;;;;;;10.07;7.63;;;11.90;99.90;;;12.34;100.00;94535.00;2287500;56;26136;-58
2021/10/05 08:35:57;;;;;;;9.43;7.33;;;11.90;99.90;;;12.28;100.00;94550.00;2521461;55;26138;-57
2021/10/05 08:38:44;;;;;;;11.83;7.87;;;11.90;99.90;;;12.31;100.00;94553.00;2287941;56;26540;-58
2021/10/05 08:41:31;;;;;;;10.33;7.23;;;11.90;99.90;;;12.41;100.00;94534.00;2521558;55;26608;-58
2021/10/05 08:44:18;;;;;;;10.50;8.17;;;12.00;99.90;;;12.59;100.00;94526.00;2265863;56;26536;-58
2021/10/05 08:47:05;;;;;;;10.07;7.70;;;12.20;99.90;;;12.73;100.00;94521.00;2265993;56;26574;-58
2021/10/05 08:49:52;;;;;;;10.47;8.10;;;12.20;99.90;;;12.75;100.00;94521.00;2495624;55;26089;-58
2021/10/05 08:52:38;;;;;;;8.40;6.72;;;12.30;99.90;;;12.81;100.00;94517.00;2266718;55;26106;-58
2021/10/05 08:55:25;;;;;;;8.98;7.20;;;12.30;99.90;;;12.87;100.00;94515.00;2509558;55;26168;-58
2021/10/05 08:58:12;;;;;;;10.20;7.30;;;12.30;99.90;;;12.86;100.00;94510.00;2287606;56;26536;-59
2021/10/05 09:04:08;;;;;;;10.13;7.68;;;12.40;99.90;;;13.10;100.00;94527.00;2242683;56;33716;-58
2021/10/05 09:06:55;;;;;;;10.13;7.43;;;12.50;99.90;;;13.08;100.00;94543.00;2209938;56;26147;-58
2021/10/05 09:09:56;;;;;;;9.20;7.68;;;12.60;99.90;;;13.23;100.00;94530.00;2429569;56;26206;-59
2021/10/05 09:12:43;;;;;;;11.88;8.88;;;13.10;99.90;;;13.97;100.00;94525.00;2451364;55;26762;-59
2021/10/05 09:15:30;;;;;;;9.18;7.20;;;14.20;99.90;;;15.63;100.00;94508.00;2238031;56;26574;-58
2021/10/05 09:18:17;;;;;;;8.43;6.70;;;15.10;99.90;;;16.60;100.00;94502.00;2467769;55;26126;-57
2021/10/05 09:21:03;;;;;;;7.43;6.22;;;15.00;99.90;;;16.23;100.00;94508.00;2261659;56;26128;-58
2021/10/05 09:23:58;;;;;;;7.70;6.22;;;14.80;99.90;;;15.61;100.00;94511.00;2267174;56;26121;-57
2021/10/05 09:26:50;;;;;;;8.10;6.03;;;14.90;99.90;;;15.68;100.00;94509.00;2257234;55;26211;-58
2021/10/05 09:29:39;;;;;;;8.00;6.15;;;15.00;99.90;;;15.89;100.00;94500.00;2465278;56;26143;-57
2021/10/05 09:32:26;;;;;;;8.07;6.05;;;14.90;99.90;;;15.67;100.00;94504.00;2241351;56;26195;-58
2021/10/05 09:35:12;;;;;;;7.87;6.20;;;14.50;99.90;;;15.06;100.00;94512.00;2239414;56;26250;-58
2021/10/05 09:38:11;;;;;;;12.68;8.55;;;14.20;99.90;;;14.80;100.00;94507.00;2240864;56;26595;-58
2021/10/05 09:41:02;;;;;;;6.95;5.03;;;14.30;99.90;;;15.15;100.00;94501.00;2488018;55;26649;-58
2021/10/05 09:44:00;;;;;;;5.18;4.68;;;14.30;99.90;;;14.89;100.00;94504.00;2267090;55;26104;-58
2021/10/05 09:46:50;;;;;;;5.40;4.78;;;14.60;99.90;;;15.49;100.00;94502.00;2267484;56;26121;-57
2021/10/05 09:49:45;;;;;;;4.95;4.28;;;14.80;99.90;;;15.84;100.00;94486.00;2496500;55;26103;-58
2021/10/05 09:52:44;;;;;;;5.95;4.47;;;15.30;99.90;;;16.38;100.00;94477.00;2266690;56;26678;-60
2021/10/05 09:55:33;;;;;;;5.05;4.20;;;16.60;99.90;;;18.16;100.00;94490.00;2496098;55;26559;-59
2021/10/05 09:58:20;;;;;;;4.75;4.10;;;16.70;99.90;;;18.11;100.00;94492.00;2265577;56;26178;-57
2021/10/05 10:01:06;;;;;;;4.55;4.15;;;16.00;99.90;;;16.84;100.00;94487.00;2265543;56;26140;-58
2021/10/05 10:03:54;;;;;;;4.53;4.03;;;15.80;99.90;;;16.51;100.00;94483.00;2241927;56;26649;-57
2021/10/05 10:06:41;;;;;;;5.50;4.40;;;15.70;99.90;;;16.56;100.00;94472.00;2466429;55;26133;-58
2021/10/05 10:09:27;;;;;;;4.40;3.95;;;15.40;99.90;;;15.99;100.00;94471.00;2242197;56;26097;-57
2021/10/05 10:12:14;;;;;;;4.97;4.20;;;15.30;99.90;;;15.97;100.00;94465.00;2465843;55;26197;-58
2021/10/05 10:15:02;;;;;;;4.35;3.90;;;15.50;99.90;;;16.34;100.00;94466.00;2240794;56;26175;-57
2021/10/05 10:17:48;;;;;;;4.97;4.47;;;15.40;99.90;;;16.14;100.00;94467.00;2465118;55;26213;-57
2021/10/05 10:23:36;;;;;;;4.78;4.35;;;15.40;99.90;;;16.31;100.00;94466.00;2217007;56;33215;-57
2021/10/05 10:26:22;;;;;;;4.90;4.43;;;15.40;99.90;;;16.14;100.00;94475.00;2215658;56;26131;-58
2021/10/05 10:29:11;;;;;;;4.78;4.22;;;15.70;99.90;;;16.71;100.00;94462.00;2459444;55;26223;-58
2021/10/05 10:32:07;;;;;;;4.10;3.70;;;17.40;99.90;;;20.52;100.00;94453.00;2236006;57;26150;-58
2021/10/05 10:35:07;;;;;;;3.67;3.37;;;19.80;99.90;;;23.24;100.00;94454.00;2236574;57;26151;-57
2021/10/05 10:37:55;;;;;;;4.95;3.33;;;21.40;99.90;;;24.82;100.00;94442.00;2459469;56;26243;-58
2021/10/05 10:40:42;;;;;;;3.95;3.58;;;21.90;99.90;;;25.03;100.00;94455.00;2236141;56;26123;-58
2021/10/05 10:43:30;;;;;;;4.68;3.20;;;20.80;99.90;;;23.07;100.00;94458.00;2458642;56;26102;-59
2021/10/05 10:46:26;;;;;;;3.50;3.20;;;20.30;99.90;;;22.48;100.00;94467.00;2235995;57;26131;-58
2021/10/05 10:52:25;;;;;;;2.90;2.60;;;17.70;99.90;;;18.09;100.00;94474.00;2248342;54;33247;-58
2021/10/05 10:55:15;;;;;;;2.83;2.60;;;16.90;99.90;;;17.40;100.00;94483.00;2270379;55;26106;-58
2021/10/05 10:58:04;;;;;;;3.22;2.92;;;16.70;99.90;;;17.19;100.00;94468.00;2284372;55;26160;-57
2021/10/05 11:00:52;;;;;;;3.78;3.25;;;16.50;99.90;;;17.18;100.00;94479.00;2522830;54;26116;-57
2021/10/05 11:03:38;;;;;;;3.78;3.22;;;16.10;99.90;;;16.71;100.00;94488.00;2288819;56;26713;-58
2021/10/05 11:06:24;;;;;;;3.67;3.25;;;15.90;99.90;;;16.34;100.00;94488.00;2288164;55;26690;-58
2021/10/05 11:09:11;;;;;;;3.53;3.20;;;15.70;99.90;;;16.23;100.00;94494.00;2286723;55;26125;-58
2021/10/05 11:11:59;;;;;;;3.53;3.00;;;15.50;99.90;;;16.06;100.00;94495.00;2286920;55;26202;-57
2021/10/05 11:14:47;;;;;;;4.03;3.55;;;15.50;99.90;;;16.25;100.00;94497.00;2287345;55;26159;-57
2021/10/05 11:17:37;;;;;;;3.67;3.05;;;15.90;99.90;;;16.77;100.00;94501.00;2287508;55;26136;-58
2021/10/05 11:20:23;;;;;;;3.25;2.95;;;16.20;99.90;;;17.28;100.00;94496.00;2287077;55;26157;-57
2021/10/05 11:23:10;;;;;;;3.50;3.15;;;16.60;99.90;;;17.79;100.00;94494.00;2286785;55;26746;-57
2021/10/05 11:26:01;;;;;;;2.72;2.53;;;17.80;99.90;;;19.79;100.00;94485.00;2522759;55;26275;-57
2021/10/05 11:28:47;;;;;;;7.65;5.85;;;19.30;99.90;;;22.23;100.00;94491.00;2288703;55;26093;-58
2021/10/05 11:31:47;;;;;;;3.15;2.85;;;20.60;99.90;;;24.13;100.00;94485.00;2522673;55;26186;-58
2021/10/05 11:34:37;;;;;;;2.87;2.58;;;20.80;99.90;;;23.84;100.00;94491.00;2522716;55;26169;-57
2021/10/05 11:40:21;;;;;;;2.22;2.03;;;20.80;99.90;;;22.38;100.00;94479.00;2251611;54;33153;-57
2021/10/05 11:43:08;;;;;;;2.70;2.00;;;19.80;99.90;;;20.91;100.00;94485.00;2259480;55;26192;-58
2021/10/05 11:45:55;;;;;;;2.35;2.05;;;18.90;99.90;;;19.64;100.00;94493.00;2243153;55;26142;-58
2021/10/05 11:48:45;;;;;;;1.92;1.83;;;18.40;99.90;;;19.14;100.00;94490.00;2245213;55;26637;-58
2021/10/05 11:51:43;;;;;;;2.62;2.37;;;18.10;99.90;;;18.77;100.00;94489.00;2239999;55;26770;-58
2021/10/05 11:54:32;;;;;;;2.53;2.10;;;17.70;99.90;;;18.35;100.00;94487.00;2241444;55;26660;-57
2021/10/05 11:57:21;;;;;;;2.58;1.90;;;17.50;99.90;;;18.17;100.00;94487.00;2241042;55;26681;-58
2021/10/05 12:00:11;;;;;;;2.28;2.00;;;17.50;99.90;;;18.24;100.00;94487.00;2464773;55;26632;-57
2021/10/05 12:02:57;;;;;;;2.17;1.90;;;17.20;99.90;;;17.62;100.00;94493.00;2241180;55;26080;-57
2021/10/05 12:05:43;;;;;;;2.25;2.00;;;16.70;99.90;;;17.20;100.00;94490.00;2241431;56;26578;-57